Time;durP1;ratioP1;P1;durP2;ratioP2;P2;SDS_P1;SDS_P2;PMS_P1;PMS_P2;Temp;Humidity;BMP_temperature;BMP_pressure;BME280_temperature;BME280_humidity;BME280_pressure;Samples;Min_cycle;Max_cycle;Signal;HPM_P1;HPM_P2
2022/11/25 00:00:47;;;;;;;13.90;7.23;;;2.60;99.90;;;;;;5070753;28;20536;-68
2022/11/25 00:03:14;;;;;;;20.10;9.33;;;2.50;99.90;;;;;;5070484;28;20474;-68
2022/11/25 00:05:40;;;;;;;28.47;8.83;;;2.50;99.90;;;;;;5070373;28;20453;-68
2022/11/25 00:08:07;;;;;;;16.63;8.53;;;2.50;99.90;;;;;;5070522;28;20454;-67
2022/11/25 00:10:34;;;;;;;19.90;8.67;;;2.60;99.90;;;;;;5070386;28;20483;-68
2022/11/25 00:13:02;;;;;;;28.17;9.47;;;2.70;99.90;;;;;;5070409;28;20455;-68
2022/11/25 00:15:29;;;;;;;32.57;9.63;;;2.70;99.90;;;;;;5067340;28;20960;-68
2022/11/25 00:17:56;;;;;;;25.30;9.40;;;2.70;99.90;;;;;;5066856;28;20456;-68
2022/11/25 00:20:22;;;;;;;26.90;9.00;;;2.80;99.90;;;;;;5078397;28;20452;-68
2022/11/25 00:22:49;;;;;;;25.17;8.97;;;2.80;99.90;;;;;;5078818;28;20472;-68
2022/11/25 00:25:16;;;;;;;19.47;8.53;;;2.80;99.90;;;;;;5070654;28;20452;-67
2022/11/25 00:27:42;;;;;;;18.07;8.20;;;2.70;99.90;;;;;;5070736;28;20445;-67
2022/11/25 00:30:11;;;;;;;22.57;9.10;;;2.70;99.90;;;;;;5070936;28;20559;-68
2022/11/25 00:32:38;;;;;;;20.97;8.30;;;2.70;99.90;;;;;;5070264;28;20940;-68
2022/11/25 00:35:05;;;;;;;25.10;8.40;;;2.60;99.90;;;;;;5071945;28;20475;-68
2022/11/25 00:37:32;;;;;;;21.60;9.87;;;2.60;99.90;;;;;;5073859;28;20445;-67
2022/11/25 00:39:59;;;;;;;25.93;8.67;;;2.60;99.90;;;;;;5074376;28;20449;-68
2022/11/25 00:45:17;;;;;;;20.43;8.83;;;2.50;99.90;;;;;;5017075;28;20436;-67
2022/11/25 00:47:43;;;;;;;23.63;9.80;;;2.60;99.90;;;;;;5073607;28;20812;-67
2022/11/25 00:50:10;;;;;;;48.00;10.87;;;2.60;99.90;;;;;;5073613;28;20446;-68
2022/11/25 00:52:37;;;;;;;29.53;10.20;;;2.60;99.90;;;;;;5073169;28;20445;-68
2022/11/25 00:55:04;;;;;;;23.67;9.83;;;2.70;99.90;;;;;;5074057;28;20488;-67
2022/11/25 00:57:31;;;;;;;30.13;9.70;;;2.70;99.90;;;;;;5085313;28;20440;-68
2022/11/25 00:59:58;;;;;;;44.53;10.00;;;2.80;99.90;;;;;;5093907;28;20974;-68
2022/11/25 01:02:26;;;;;;;17.03;8.33;;;2.80;99.90;;;;;;5084804;28;20489;-68
2022/11/25 01:04:52;;;;;;;29.20;9.57;;;2.80;99.90;;;;;;5073403;28;20473;-67
2022/11/25 01:07:19;;;;;;;38.27;11.17;;;2.80;99.90;;;;;;5073696;28;20494;-68
2022/11/25 01:09:47;;;;;;;24.03;10.20;;;2.80;99.90;;;;;;5073698;28;20449;-68
2022/11/25 01:12:14;;;;;;;24.27;10.87;;;2.80;99.90;;;;;;5073681;28;20880;-67
2022/11/25 01:14:41;;;;;;;21.43;9.57;;;2.90;99.90;;;;;;5081524;28;20469;-67
2022/11/25 01:17:08;;;;;;;17.80;9.27;;;2.90;99.90;;;;;;5073459;28;20448;-67
2022/11/25 01:19:38;;;;;;;24.10;9.83;;;2.90;99.90;;;;;;5073286;28;20466;-67
2022/11/25 01:22:05;;;;;;;25.23;10.07;;;2.80;99.90;;;;;;5073284;28;20494;-68
2022/11/25 01:24:32;;;;;;;20.43;8.70;;;2.80;99.90;;;;;;5073173;28;20535;-67
2022/11/25 01:26:59;;;;;;;24.20;10.43;;;2.80;99.90;;;;;;5073408;28;20445;-67
2022/11/25 01:29:26;;;;;;;29.97;10.30;;;2.80;99.90;;;;;;5073477;28;20445;-67
2022/11/25 01:31:55;;;;;;;24.40;10.27;;;2.80;99.90;;;;;;5073352;28;20477;-67
2022/11/25 01:34:24;;;;;;;26.40;9.63;;;2.80;99.90;;;;;;5072067;28;20551;-68
2022/11/25 01:36:52;;;;;;;20.97;10.17;;;2.80;99.90;;;;;;5072774;28;20451;-67
2022/11/25 01:39:20;;;;;;;19.23;9.97;;;2.70;99.90;;;;;;5073042;28;20479;-67
2022/11/25 01:41:48;;;;;;;27.67;9.90;;;2.70;99.90;;;;;;5072388;28;21006;-68
2022/11/25 01:44:16;;;;;;;28.40;10.00;;;2.70;99.90;;;;;;5072689;28;20472;-68
2022/11/25 01:47:06;;;;;;;16.70;8.90;;;2.60;99.90;;;;;;5071618;28;20451;-67
2022/11/25 01:49:39;;;;;;;22.17;9.07;;;2.60;99.90;;;;;;5066298;28;20458;-68
2022/11/25 01:52:13;;;;;;;25.10;9.57;;;2.60;99.90;;;;;;5052645;28;20441;-68
2022/11/25 01:54:46;;;;;;;25.80;10.90;;;2.60;99.90;;;;;;5052931;28;20564;-67
2022/11/25 01:57:16;;;;;;;22.50;10.50;;;2.60;99.90;;;;;;5070781;28;20474;-67
2022/11/25 01:59:49;;;;;;;30.30;10.13;;;2.60;99.90;;;;;;5092832;28;20453;-68
2022/11/25 02:02:17;;;;;;;25.17;10.63;;;2.60;99.90;;;;;;5074231;28;20482;-68
2022/11/25 02:04:46;;;;;;;26.67;11.17;;;2.60;99.90;;;;;;5072073;28;21056;-67
2022/11/25 02:07:20;;;;;;;33.60;11.20;;;2.60;99.90;;;;;;5072863;28;20532;-67
2022/11/25 02:09:48;;;;;;;24.00;10.73;;;2.70;99.90;;;;;;5072569;28;20872;-67
2022/11/25 02:12:17;;;;;;;25.47;11.00;;;2.70;99.90;;;;;;5072468;28;20533;-68
2022/11/25 02:14:46;;;;;;;33.67;10.70;;;2.70;99.90;;;;;;5072443;28;20561;-68
2022/11/25 02:17:13;;;;;;;28.50;11.20;;;2.70;99.90;;;;;;5078152;28;20461;-67
2022/11/25 02:19:58;;;;;;;25.30;11.27;;;2.70;99.90;;;;;;5072291;28;20458;-67
2022/11/25 02:22:38;;;;;;;40.50;12.13;;;2.70;99.90;;;;;;5071042;28;20571;-67
2022/11/25 02:25:16;;;;;;;23.80;11.23;;;2.70;99.90;;;;;;5070743;28;20905;-68
2022/11/25 02:27:46;;;;;;;31.87;12.50;;;2.70;99.90;;;;;;5071437;28;20456;-68
2022/11/25 02:30:13;;;;;;;37.17;13.20;;;2.70;99.90;;;;;;5071645;28;20478;-67
2022/11/25 02:32:43;;;;;;;31.27;12.03;;;2.70;99.90;;;;;;5070815;28;20474;-67
2022/11/25 02:35:29;;;;;;;26.70;11.93;;;2.70;99.90;;;;;;5071134;28;20845;-67
2022/11/25 02:38:01;;;;;;;35.20;12.20;;;2.60;99.90;;;;;;5071853;28;20460;-67
2022/11/25 02:40:30;;;;;;;48.20;12.07;;;2.60;99.90;;;;;;5071127;28;20469;-68
2022/11/25 02:42:59;;;;;;;52.63;11.50;;;2.60;99.90;;;;;;5071292;28;20508;-68
2022/11/25 02:45:35;;;;;;;38.03;11.90;;;2.60;99.90;;;;;;5071439;28;20795;-67
2022/11/25 02:48:01;;;;;;;40.13;12.07;;;2.60;99.90;;;;;;5070955;28;20455;-67
2022/11/25 02:50:28;;;;;;;29.47;11.80;;;2.60;99.90;;;;;;5070745;28;20453;-67
2022/11/25 02:52:55;;;;;;;31.50;10.60;;;2.60;99.90;;;;;;5071082;28;20445;-67
2022/11/25 02:55:21;;;;;;;27.33;10.93;;;2.60;99.90;;;;;;5070945;28;20462;-68
2022/11/25 02:57:49;;;;;;;32.10;10.77;;;2.60;99.90;;;;;;5074596;28;20453;-68
2022/11/25 03:00:18;;;;;;;22.73;11.00;;;2.60;99.90;;;;;;5071371;28;20470;-67
2022/11/25 03:02:44;;;;;;;18.90;10.10;;;2.60;99.90;;;;;;5071241;28;20488;-68
2022/11/25 03:05:11;;;;;;;22.40;10.43;;;2.50;99.90;;;;;;5070639;28;20472;-67
2022/11/25 03:07:38;;;;;;;35.30;10.83;;;2.50;99.90;;;;;;5071182;28;20478;-68
2022/11/25 03:10:06;;;;;;;17.27;9.17;;;2.50;99.90;;;;;;5070835;28;20548;-68
2022/11/25 03:12:33;;;;;;;34.83;10.20;;;2.50;99.90;;;;;;5070995;28;20790;-68
2022/11/25 03:15:01;;;;;;;18.40;9.40;;;2.50;99.90;;;;;;5073851;28;20494;-68
2022/11/25 03:17:28;;;;;;;21.80;9.80;;;2.50;99.90;;;;;;5071246;28;20458;-68
2022/11/25 03:19:54;;;;;;;21.83;9.40;;;2.40;99.90;;;;;;5071041;28;20543;-68
2022/11/25 03:22:21;;;;;;;18.83;8.67;;;2.40;99.90;;;;;;5070339;28;20485;-68
2022/11/25 03:24:48;;;;;;;19.93;8.30;;;2.40;99.90;;;;;;5070780;28;20460;-68
2022/11/25 03:27:14;;;;;;;18.77;9.13;;;2.40;99.90;;;;;;5070697;28;20446;-68
2022/11/25 03:29:41;;;;;;;14.53;8.90;;;2.40;99.90;;;;;;5071016;28;20490;-68
2022/11/25 03:32:09;;;;;;;19.90;9.57;;;2.30;99.90;;;;;;5070692;28;20476;-68
2022/11/25 03:34:36;;;;;;;25.90;9.20;;;2.30;99.90;;;;;;5070993;28;20475;-68
2022/11/25 03:37:02;;;;;;;24.10;9.80;;;2.20;99.90;;;;;;5070511;28;20458;-68
2022/11/25 03:39:29;;;;;;;17.13;9.47;;;2.20;99.90;;;;;;5070501;28;20450;-68
2022/11/25 03:41:56;;;;;;;17.30;9.00;;;2.20;99.90;;;;;;5070212;28;20489;-68
2022/11/25 03:44:23;;;;;;;30.47;10.80;;;2.30;99.90;;;;;;5070838;28;20471;-68
2022/11/25 03:46:49;;;;;;;27.73;10.13;;;2.30;99.90;;;;;;5070390;28;20448;-68
2022/11/25 03:49:17;;;;;;;27.73;10.60;;;2.40;99.90;;;;;;5070882;28;20949;-68
2022/11/25 03:51:44;;;;;;;21.87;10.67;;;2.40;99.90;;;;;;5070198;28;20480;-67
2022/11/25 03:54:11;;;;;;;28.30;9.30;;;2.40;99.90;;;;;;5070790;28;20471;-68
2022/11/25 03:56:37;;;;;;;31.50;9.80;;;2.40;99.90;;;;;;5071260;28;20458;-68
2022/11/25 03:59:04;;;;;;;24.10;10.67;;;2.40;99.90;;;;;;5070961;28;20458;-68
2022/11/25 04:01:31;;;;;;;21.50;10.20;;;2.50;99.90;;;;;;5070560;28;20461;-68
2022/11/25 04:03:57;;;;;;;27.53;10.47;;;2.50;99.90;;;;;;5066425;28;20467;-68
2022/11/25 04:06:25;;;;;;;18.57;10.00;;;2.70;99.90;;;;;;5070480;28;20453;-68
2022/11/25 04:08:52;;;;;;;20.00;9.30;;;2.50;99.90;;;;;;5071040;28;20458;-68
2022/11/25 04:11:19;;;;;;;27.00;9.53;;;2.50;99.90;;;;;;5074042;28;20460;-68
2022/11/25 04:13:44;;;;;;;21.70;9.63;;;2.50;99.90;;;;;;5081173;28;20468;-68
2022/11/25 04:16:22;;;;;;;20.20;9.43;;;2.50;99.90;;;;;;5074115;28;20970;-68
2022/11/25 04:18:48;;;;;;;23.63;10.17;;;2.50;99.90;;;;;;5074639;28;20205;-68
2022/11/25 04:21:15;;;;;;;16.13;9.33;;;2.60;99.90;;;;;;5074251;28;20450;-68
2022/11/25 04:23:43;;;;;;;35.07;11.33;;;2.60;99.90;;;;;;5073656;28;20884;-68
2022/11/25 04:26:10;;;;;;;30.03;10.83;;;2.60;99.90;;;;;;5074301;28;20445;-68
2022/11/25 04:28:36;;;;;;;24.77;10.07;;;2.70;99.90;;;;;;5074465;28;20454;-68
2022/11/25 04:31:06;;;;;;;28.33;10.03;;;2.70;99.90;;;;;;5073982;28;20999;-68
2022/11/25 04:33:32;;;;;;;26.47;11.53;;;2.70;99.90;;;;;;5072866;28;20476;-68
2022/11/25 04:35:59;;;;;;;32.77;11.90;;;2.70;99.90;;;;;;5074511;28;20452;-68
2022/11/25 04:38:26;;;;;;;27.30;10.70;;;2.80;99.90;;;;;;5074267;28;20452;-68
2022/11/25 04:40:54;;;;;;;18.77;10.17;;;2.80;99.90;;;;;;5073911;28;20449;-68
2022/11/25 04:43:21;;;;;;;19.57;10.43;;;2.80;99.90;;;;;;5072453;28;21008;-68
2022/11/25 04:45:48;;;;;;;24.67;11.10;;;2.80;99.90;;;;;;5073873;28;20782;-68
2022/11/25 04:48:15;;;;;;;28.30;11.17;;;2.80;99.90;;;;;;5074090;28;20445;-68
2022/11/25 04:50:42;;;;;;;26.63;10.80;;;2.90;99.90;;;;;;5073785;28;20453;-68
2022/11/25 04:53:08;;;;;;;20.30;10.90;;;2.90;99.90;;;;;;5072896;28;20451;-68
2022/11/25 04:55:35;;;;;;;18.30;10.00;;;2.90;99.90;;;;;;5073699;28;20462;-68
2022/11/25 04:58:03;;;;;;;24.70;10.80;;;2.90;99.90;;;;;;5076305;28;20454;-68
2022/11/25 05:00:29;;;;;;;18.13;9.50;;;3.00;99.90;;;;;;5074081;28;20449;-68
2022/11/25 05:02:56;;;;;;;25.60;9.93;;;3.00;99.90;;;;;;5073287;28;20508;-68
2022/11/25 05:05:23;;;;;;;25.37;11.63;;;3.00;99.90;;;;;;5073465;28;20206;-68
2022/11/25 05:07:50;;;;;;;24.67;11.03;;;3.00;99.90;;;;;;5073396;28;20455;-68
2022/11/25 05:10:16;;;;;;;27.40;11.17;;;3.00;99.90;;;;;;5073358;28;20514;-68
2022/11/25 05:12:43;;;;;;;25.70;10.70;;;3.00;99.90;;;;;;5073009;28;20823;-68
2022/11/25 05:15:12;;;;;;;18.63;10.50;;;3.00;99.90;;;;;;5075417;28;20472;-68
2022/11/25 05:17:39;;;;;;;22.07;11.23;;;3.00;99.90;;;;;;5073429;28;20454;-68
2022/11/25 05:20:07;;;;;;;31.93;11.27;;;3.00;99.90;;;;;;5073452;28;20456;-68
2022/11/25 05:22:34;;;;;;;17.30;10.03;;;3.10;99.90;;;;;;5072788;28;20482;-68
2022/11/25 05:25:01;;;;;;;21.10;9.43;;;3.10;99.90;;;;;;5070186;28;20469;-68
2022/11/25 05:27:28;;;;;;;22.97;9.40;;;3.10;99.90;;;;;;5072803;28;20453;-68
2022/11/25 05:29:55;;;;;;;20.77;9.50;;;3.10;99.90;;;;;;5073003;28;20454;-68
2022/11/25 05:32:23;;;;;;;19.87;9.93;;;3.10;99.90;;;;;;5072779;28;20442;-68
2022/11/25 05:34:50;;;;;;;21.30;11.10;;;3.10;99.90;;;;;;5072903;28;20511;-68
2022/11/25 05:37:17;;;;;;;28.07;11.07;;;3.10;99.90;;;;;;5072560;28;20447;-68
2022/11/25 05:39:43;;;;;;;15.30;8.80;;;3.10;99.90;;;;;;5072850;28;20507;-68
2022/11/25 05:42:10;;;;;;;23.30;10.50;;;3.10;99.90;;;;;;5072323;28;20455;-68
2022/11/25 05:44:37;;;;;;;26.03;10.57;;;3.20;99.90;;;;;;5072787;28;20474;-68
2022/11/25 05:47:03;;;;;;;26.53;10.47;;;3.20;99.90;;;;;;5072901;28;20457;-68
2022/11/25 05:49:31;;;;;;;28.77;10.63;;;3.30;99.90;;;;;;5072090;28;20466;-68
2022/11/25 05:52:00;;;;;;;23.87;10.70;;;3.30;99.90;;;;;;5072415;28;20446;-68
2022/11/25 05:54:26;;;;;;;25.97;10.30;;;3.30;99.90;;;;;;5071992;28;20844;-68
2022/11/25 05:56:53;;;;;;;24.80;9.70;;;3.30;99.90;;;;;;5078629;28;20452;-68
2022/11/25 05:59:20;;;;;;;19.60;9.03;;;3.30;99.90;;;;;;5073119;28;20795;-68
2022/11/25 06:01:46;;;;;;;23.70;9.20;;;3.30;99.90;;;;;;5072393;28;20451;-68
2022/11/25 06:04:13;;;;;;;27.20;9.23;;;3.30;99.90;;;;;;5071672;28;20526;-68
2022/11/25 06:06:41;;;;;;;24.10;10.20;;;3.30;99.90;;;;;;5072080;28;20456;-68
2022/11/25 06:09:08;;;;;;;20.50;10.33;;;3.30;99.90;;;;;;5072264;28;20461;-68
2022/11/25 06:11:34;;;;;;;24.90;9.73;;;3.30;99.90;;;;;;5063654;28;20805;-68
2022/11/25 06:14:01;;;;;;;26.03;9.23;;;3.30;99.90;;;;;;5077796;28;20469;-68
2022/11/25 06:16:28;;;;;;;16.87;8.63;;;3.40;99.90;;;;;;5071622;28;20948;-68
2022/11/25 06:18:54;;;;;;;23.13;8.97;;;3.40;99.90;;;;;;5071744;28;20456;-68
2022/11/25 06:21:21;;;;;;;25.13;9.60;;;3.40;99.90;;;;;;5071498;28;20459;-67
2022/11/25 06:23:49;;;;;;;32.43;9.70;;;3.50;99.90;;;;;;5071393;28;20486;-67
2022/11/25 06:26:20;;;;;;;15.73;9.30;;;3.50;99.90;;;;;;5071989;28;20445;-67
2022/11/25 06:28:47;;;;;;;20.37;8.83;;;3.50;99.90;;;;;;5070655;28;20460;-67
2022/11/25 06:31:15;;;;;;;19.33;9.57;;;3.50;99.90;;;;;;5070461;28;21111;-67
2022/11/25 06:33:42;;;;;;;19.90;8.97;;;3.50;99.90;;;;;;5067386;28;20827;-67
2022/11/25 06:36:15;;;;;;;19.50;9.13;;;3.50;99.90;;;;;;5070832;28;20513;-68
2022/11/25 06:38:42;;;;;;;17.83;8.60;;;3.50;99.90;;;;;;5070733;28;20481;-68
2022/11/25 06:41:10;;;;;;;18.80;9.60;;;3.50;99.90;;;;;;5069186;28;21003;-68
2022/11/25 06:43:37;;;;;;;15.10;9.40;;;3.60;99.90;;;;;;5068771;28;20488;-68
2022/11/25 06:46:05;;;;;;;24.90;10.10;;;3.60;99.90;;;;;;5066162;28;20857;-68
2022/11/25 06:48:32;;;;;;;24.77;9.97;;;3.60;99.90;;;;;;5069775;28;20453;-68
2022/11/25 06:51:00;;;;;;;27.20;9.40;;;3.60;99.90;;;;;;5069761;28;20459;-68
2022/11/25 06:53:28;;;;;;;23.80;9.67;;;3.60;99.90;;;;;;5070365;28;20469;-69
2022/11/25 06:56:06;;;;;;;20.77;10.27;;;3.60;99.90;;;;;;5070042;28;20460;-70
2022/11/25 06:58:36;;;;;;;24.83;9.83;;;3.70;99.90;;;;;;5071258;28;20794;-69
2022/11/25 07:01:04;;;;;;;24.70;9.90;;;3.60;99.90;;;;;;5071140;28;20545;-68
2022/11/25 07:03:31;;;;;;;29.57;11.40;;;3.70;99.90;;;;;;5070662;28;20486;-67
2022/11/25 07:05:58;;;;;;;21.13;10.80;;;3.70;99.90;;;;;;5078598;28;20463;-68
2022/11/25 07:08:25;;;;;;;27.70;11.07;;;3.80;99.90;;;;;;5070906;28;20449;-68
2022/11/25 07:10:53;;;;;;;23.57;9.80;;;3.90;99.90;;;;;;5070124;28;21142;-68
2022/11/25 07:13:20;;;;;;;27.03;9.97;;;3.90;99.90;;;;;;5070567;28;20463;-68
2022/11/25 07:15:48;;;;;;;21.43;10.30;;;3.90;99.90;;;;;;5070717;28;20448;-68
2022/11/25 07:18:15;;;;;;;29.30;10.60;;;3.90;99.90;;;;;;5070353;28;20962;-68
2022/11/25 07:20:42;;;;;;;24.80;10.33;;;4.00;99.90;;;;;;5070477;28;20970;-68
2022/11/25 07:23:08;;;;;;;24.83;10.93;;;4.00;99.90;;;;;;5070486;28;20491;-68
2022/11/25 07:25:35;;;;;;;29.47;10.27;;;4.00;99.90;;;;;;5070255;28;20451;-68
2022/11/25 07:28:02;;;;;;;25.00;10.73;;;4.10;99.90;;;;;;5070725;28;20450;-68
2022/11/25 07:30:28;;;;;;;23.70;10.50;;;4.10;99.90;;;;;;5070427;28;20478;-67
2022/11/25 07:32:56;;;;;;;27.73;11.10;;;4.20;99.90;;;;;;5070128;28;20440;-67
2022/11/25 07:35:23;;;;;;;32.10;11.27;;;4.30;99.90;;;;;;5070439;28;20466;-69
2022/11/25 07:37:51;;;;;;;21.63;10.40;;;4.30;99.90;;;;;;5070751;28;20480;-69
2022/11/25 07:40:18;;;;;;;19.93;10.20;;;4.40;99.90;;;;;;5070360;28;20447;-69
2022/11/25 07:42:45;;;;;;;25.23;9.30;;;4.40;99.90;;;;;;5070326;28;20454;-69
2022/11/25 07:45:12;;;;;;;23.33;10.80;;;4.50;99.90;;;;;;5068425;28;20481;-66
2022/11/25 07:47:38;;;;;;;38.50;10.83;;;4.60;99.90;;;;;;5069690;28;20689;-67
2022/11/25 07:50:08;;;;;;;22.97;10.87;;;4.70;99.90;;;;;;5069917;28;20459;-67
2022/11/25 07:52:37;;;;;;;19.40;11.30;;;4.70;99.90;;;;;;5070027;28;20650;-67
2022/11/25 07:55:04;;;;;;;23.63;10.77;;;4.80;99.90;;;;;;5033931;28;1032202;-69
2022/11/25 07:57:31;;;;;;;21.43;11.80;;;4.90;99.90;;;;;;5070797;28;20201;-69
2022/11/25 07:59:58;;;;;;;26.53;12.20;;;5.00;99.90;;;;;;5071029;28;20442;-69
2022/11/25 08:02:24;;;;;;;34.67;12.53;;;5.10;99.90;;;;;;5070881;28;20459;-67
2022/11/25 08:04:51;;;;;;;33.87;13.37;;;5.20;99.90;;;;;;5071115;28;20484;-68
2022/11/25 08:07:19;;;;;;;24.50;13.33;;;5.20;99.90;;;;;;5070208;28;20537;-68
2022/11/25 08:09:46;;;;;;;29.57;12.87;;;5.30;99.90;;;;;;5071198;28;20494;-69
2022/11/25 08:12:12;;;;;;;33.10;13.20;;;5.30;99.90;;;;;;5070278;28;20883;-68
2022/11/25 08:14:39;;;;;;;26.13;12.27;;;5.40;99.90;;;;;;5070216;28;20473;-69
2022/11/25 08:17:06;;;;;;;30.50;12.77;;;5.40;99.90;;;;;;5070900;28;20508;-67
2022/11/25 08:19:33;;;;;;;22.20;11.90;;;5.50;99.90;;;;;;5071194;28;20455;-69
2022/11/25 08:21:59;;;;;;;25.60;12.80;;;5.50;99.90;;;;;;5069806;28;20449;-68
2022/11/25 08:24:27;;;;;;;24.50;12.23;;;5.50;99.90;;;;;;5070732;28;20511;-68
2022/11/25 08:26:57;;;;;;;20.40;11.00;;;5.50;99.90;;;;;;5070213;28;20456;-69
2022/11/25 08:29:24;;;;;;;27.53;12.30;;;5.60;99.90;;;;;;5070847;28;20490;-69
2022/11/25 08:31:50;;;;;;;23.53;11.50;;;5.60;99.90;;;;;;5070559;28;20963;-69
2022/11/25 08:34:22;;;;;;;23.90;12.33;;;5.60;99.90;;;;;;5070791;28;20467;-69
2022/11/25 08:36:49;;;;;;;28.30;12.43;;;5.60;99.90;;;;;;5070367;28;20453;-68
2022/11/25 08:39:17;;;;;;;21.07;10.60;;;5.70;99.90;;;;;;5070218;28;20450;-68
2022/11/25 08:41:45;;;;;;;29.13;13.23;;;5.70;99.90;;;;;;5070493;28;20462;-68
2022/11/25 08:44:13;;;;;;;35.40;13.20;;;5.70;99.90;;;;;;5070644;28;20484;-68
2022/11/25 08:46:40;;;;;;;25.10;11.30;;;5.70;99.90;;;;;;5071397;28;20457;-69
2022/11/25 08:49:08;;;;;;;25.10;11.97;;;5.70;99.90;;;;;;5070835;28;20479;-68
2022/11/25 08:51:36;;;;;;;25.20;12.00;;;5.80;99.90;;;;;;5070457;28;20478;-68
2022/11/25 08:54:03;;;;;;;26.97;12.40;;;5.80;99.90;;;;;;5070078;28;20468;-68
2022/11/25 08:56:30;;;;;;;31.57;12.47;;;5.80;99.90;;;;;;5064529;28;20459;-69
2022/11/25 08:58:58;;;;;;;31.13;13.73;;;5.80;99.90;;;;;;5074097;28;20455;-69
2022/11/25 09:01:26;;;;;;;27.17;12.83;;;5.90;99.90;;;;;;5073625;28;20463;-69
2022/11/25 09:03:55;;;;;;;26.07;12.90;;;5.90;99.90;;;;;;5073590;28;20491;-69
2022/11/25 09:06:23;;;;;;;22.87;12.00;;;6.00;99.90;;;;;;5073104;28;20456;-69
2022/11/25 09:08:50;;;;;;;27.80;12.57;;;6.00;99.90;;;;;;5073699;28;20776;-69
2022/11/25 09:11:17;;;;;;;25.73;11.77;;;6.00;99.90;;;;;;5074131;28;20454;-69
2022/11/25 09:13:44;;;;;;;18.33;10.27;;;6.00;99.90;;;;;;5073364;28;20475;-69
2022/11/25 09:16:12;;;;;;;18.80;11.03;;;6.00;99.90;;;;;;5073894;28;20452;-69
2022/11/25 09:18:38;;;;;;;29.50;11.10;;;6.00;99.90;;;;;;5073748;28;20529;-69
2022/11/25 09:21:10;;;;;;;28.00;11.67;;;6.10;99.90;;;;;;5073468;28;20464;-69
2022/11/25 09:23:37;;;;;;;21.80;11.43;;;6.10;99.90;;;;;;5069925;28;20510;-69
2022/11/25 09:26:05;;;;;;;23.60;10.90;;;6.10;99.90;;;;;;5073198;28;20452;-69
2022/11/25 09:28:32;;;;;;;29.53;11.00;;;6.20;99.90;;;;;;5065510;28;20452;-66
2022/11/25 09:30:59;;;;;;;24.40;12.23;;;6.20;99.90;;;;;;5071966;28;20459;-67
2022/11/25 09:33:27;;;;;;;23.63;12.60;;;6.30;99.90;;;;;;5072626;28;20569;-67
2022/11/25 09:35:54;;;;;;;28.80;10.10;;;6.40;99.90;;;;;;5072802;28;20581;-67
2022/11/25 09:38:21;;;;;;;24.37;10.97;;;6.40;99.90;;;;;;5072324;28;20993;-68
2022/11/25 09:40:54;;;;;;;26.30;10.73;;;6.50;99.90;;;;;;5072470;28;20450;-68
2022/11/25 09:46:41;;;;;;;20.10;10.97;;;6.60;99.90;;;;;;5065697;28;20471;-67
2022/11/25 09:49:24;;;;;;;21.70;10.30;;;6.70;99.90;;;;;;5067608;28;20455;-68
2022/11/25 09:52:02;;;;;;;26.73;10.33;;;6.70;99.90;;;;;;5068625;28;20451;-67
2022/11/25 09:54:34;;;;;;;26.40;10.20;;;6.70;99.90;;;;;;5067473;28;20469;-68
2022/11/25 09:57:15;;;;;;;22.90;10.63;;;6.80;99.90;;;;;;5068033;28;20446;-67
2022/11/25 09:59:49;;;;;;;22.17;10.60;;;6.70;99.90;;;;;;5065294;28;20454;-69
2022/11/25 10:02:22;;;;;;;21.37;10.70;;;6.70;99.90;;;;;;5067343;28;20502;-67
2022/11/25 10:04:55;;;;;;;20.13;9.80;;;6.70;99.90;;;;;;5068376;28;20996;-67
2022/11/25 10:07:27;;;;;;;25.47;10.10;;;6.80;99.90;;;;;;5066496;28;20455;-67
2022/11/25 10:09:55;;;;;;;18.60;10.30;;;6.80;99.90;;;;;;5066773;28;20459;-67
2022/11/25 10:12:25;;;;;;;19.80;11.13;;;6.80;99.90;;;;;;5065330;28;21224;-67
2022/11/25 10:14:59;;;;;;;31.77;11.87;;;6.90;99.90;;;;;;5064124;28;20473;-67
2022/11/25 10:17:35;;;;;;;22.17;10.83;;;6.90;99.90;;;;;;5067109;28;20836;-67
2022/11/25 10:20:07;;;;;;;20.33;10.97;;;7.00;99.90;;;;;;5068257;28;20562;-67
2022/11/25 10:22:35;;;;;;;26.07;10.43;;;7.10;99.90;;;;;;5066734;28;20450;-67
2022/11/25 10:25:12;;;;;;;19.83;10.87;;;7.20;99.90;;;;;;5065385;28;20495;-67
2022/11/25 10:27:46;;;;;;;24.93;10.83;;;7.20;99.90;;;;;;5066914;28;20984;-67
2022/11/25 10:30:17;;;;;;;25.70;10.87;;;7.30;99.90;;;;;;5065878;28;20447;-67
2022/11/25 10:32:49;;;;;;;14.30;10.10;;;7.30;99.90;;;;;;5067584;28;20457;-67
2022/11/25 10:35:24;;;;;;;17.93;10.43;;;7.40;99.90;;;;;;5066707;28;20470;-67
2022/11/25 10:37:54;;;;;;;22.07;11.00;;;7.40;99.90;;;;;;5067866;28;20448;-67
2022/11/25 10:40:21;;;;;;;18.03;11.00;;;7.40;99.90;;;;;;5067917;28;20527;-67
2022/11/25 10:42:48;;;;;;;29.43;11.07;;;7.40;99.90;;;;;;5066065;28;20454;-67
2022/11/25 10:45:14;;;;;;;17.63;9.93;;;7.40;99.90;;;;;;5066582;28;20986;-67
2022/11/25 10:48:04;;;;;;;28.47;11.50;;;7.40;99.90;;;;;;5065851;28;20455;-67
2022/11/25 10:50:39;;;;;;;28.30;11.90;;;7.40;99.90;;;;;;5065414;28;20505;-67
2022/11/25 10:53:15;;;;;;;35.63;14.77;;;7.40;99.90;;;;;;5066990;28;20453;-67
2022/11/25 10:55:58;;;;;;;21.03;12.43;;;7.40;99.90;;;;;;5066880;28;20447;-67
2022/11/25 10:58:28;;;;;;;221.87;124.60;;;7.40;99.90;;;;;;5063769;28;20447;-67
2022/11/25 11:01:03;;;;;;;46.20;27.33;;;7.30;99.90;;;;;;5064930;28;20450;-67
2022/11/25 11:03:30;;;;;;;20.40;13.40;;;7.40;99.90;;;;;;5065669;28;20475;-67
2022/11/25 11:05:58;;;;;;;28.33;13.70;;;7.40;99.90;;;;;;5065993;28;20971;-67
2022/11/25 11:08:28;;;;;;;31.03;14.20;;;7.40;99.90;;;;;;5065373;28;20461;-67
2022/11/25 11:11:14;;;;;;;20.30;11.50;;;7.40;99.90;;;;;;5066776;28;20462;-67
2022/11/25 11:13:41;;;;;;;21.10;11.30;;;7.50;99.90;;;;;;5066929;28;20476;-67
2022/11/25 11:16:23;;;;;;;27.23;12.13;;;7.50;99.90;;;;;;5065270;28;20806;-67
2022/11/25 11:18:50;;;;;;;30.30;11.53;;;7.50;99.90;;;;;;5066614;28;20465;-67
2022/11/25 11:21:25;;;;;;;22.43;13.20;;;7.50;99.90;;;;;;5066051;28;20543;-67
2022/11/25 11:23:53;;;;;;;22.87;12.43;;;7.50;99.90;;;;;;5064197;28;20468;-68
2022/11/25 11:26:25;;;;;;;31.23;13.10;;;7.60;99.90;;;;;;5066531;28;20455;-67
2022/11/25 11:29:02;;;;;;;27.80;13.03;;;7.70;99.90;;;;;;5066382;28;20451;-67
2022/11/25 11:31:34;;;;;;;20.77;11.50;;;7.70;99.90;;;;;;5064789;28;22252;-67
2022/11/25 11:34:19;;;;;;;23.73;11.30;;;7.70;99.90;;;;;;5064903;28;20840;-67
2022/11/25 11:37:00;;;;;;;78.43;25.80;;;7.70;99.90;;;;;;5066046;28;20974;-68
2022/11/25 11:39:49;;;;;;;30.10;12.30;;;7.70;99.90;;;;;;5066234;28;20790;-68
2022/11/25 11:42:24;;;;;;;20.50;11.27;;;7.70;99.90;;;;;;5064511;28;20444;-68
2022/11/25 11:45:05;;;;;;;27.23;11.70;;;7.70;99.90;;;;;;5064009;28;20483;-68
2022/11/25 11:47:56;;;;;;;30.67;11.10;;;7.80;99.90;;;;;;5063156;28;20978;-68
2022/11/25 11:50:27;;;;;;;24.77;12.10;;;7.90;99.90;;;;;;5063352;28;20574;-68
2022/11/25 11:53:00;;;;;;;18.70;10.50;;;7.90;99.90;;;;;;5063357;28;20459;-68
2022/11/25 11:55:38;;;;;;;24.03;11.10;;;8.00;99.90;;;;;;5065588;28;20455;-68
2022/11/25 11:58:16;;;;;;;17.70;11.33;;;8.20;99.90;;;;;;5065918;28;20546;-68
2022/11/25 12:00:49;;;;;;;29.83;11.53;;;8.30;99.90;;;;;;5064990;28;20456;-68
2022/11/25 12:03:19;;;;;;;17.83;11.60;;;8.50;99.90;;;;;;5064985;28;20472;-68
2022/11/25 12:05:52;;;;;;;17.90;9.63;;;8.70;99.90;;;;;;5065612;28;20480;-68
2022/11/25 12:08:27;;;;;;;18.60;11.20;;;8.90;99.90;;;;;;5064391;28;20468;-68
2022/11/25 12:10:58;;;;;;;18.20;9.57;;;9.00;99.90;;;;;;5065505;28;20444;-68
2022/11/25 12:13:33;;;;;;;17.53;9.63;;;9.00;99.90;;;;;;5062615;28;20476;-68
2022/11/25 12:16:06;;;;;;;18.70;9.67;;;8.90;99.90;;;;;;5065053;28;20451;-68
2022/11/25 12:18:42;;;;;;;18.70;9.17;;;9.00;99.90;;;;;;5065184;28;20451;-68
2022/11/25 12:21:22;;;;;;;15.07;9.67;;;9.00;99.90;;;;;;5062788;28;20463;-68
2022/11/25 12:23:57;;;;;;;20.53;8.53;;;9.10;99.90;;;;;;5063245;28;20628;-69
2022/11/25 12:26:30;;;;;;;20.53;10.00;;;9.10;99.90;;;;;;5062674;28;20452;-69
2022/11/25 12:29:01;;;;;;;22.83;10.10;;;9.20;99.90;;;;;;5065354;28;20547;-69
2022/11/25 12:31:31;;;;;;;17.80;8.63;;;9.20;99.90;;;;;;5066103;28;20483;-69
2022/11/25 12:34:05;;;;;;;17.00;10.10;;;9.10;99.90;;;;;;5068352;28;20479;-70
2022/11/25 12:36:35;;;;;;;26.03;10.33;;;9.00;99.90;;;;;;5069817;28;20447;-69
2022/11/25 12:39:11;;;;;;;18.87;9.67;;;9.00;99.90;;;;;;5068224;28;20452;-69
2022/11/25 12:41:42;;;;;;;21.97;10.17;;;9.10;99.90;;;;;;5066083;28;20459;-69
2022/11/25 12:44:15;;;;;;;15.63;9.10;;;9.10;99.90;;;;;;5067903;28;20468;-70
2022/11/25 12:46:45;;;;;;;15.80;8.57;;;9.10;99.90;;;;;;5066037;28;20539;-67
2022/11/25 12:49:17;;;;;;;20.87;9.70;;;9.10;99.90;;;;;;5068434;28;20456;-67
2022/11/25 12:52:11;;;;;;;20.57;8.73;;;9.10;99.90;;;;;;5068627;28;20456;-67
2022/11/25 12:54:57;;;;;;;18.77;9.20;;;9.00;99.90;;;;;;5066161;28;20487;-66
2022/11/25 12:57:45;;;;;;;14.67;8.80;;;9.00;99.90;;;;;;5069433;28;20457;-68